createdAt,value
2018-05-26T00:00:56.885Z,15.80
2018-05-26T00:03:23.276Z,15.80
2018-05-26T00:05:49.669Z,15.80
2018-05-26T00:08:16.646Z,15.70
2018-05-26T00:10:43.038Z,15.60
2018-05-26T00:13:09.435Z,15.30
2018-05-26T00:15:36.558Z,15.20
2018-05-26T00:18:02.951Z,15.20
2018-05-26T00:20:29.380Z,15.20
2018-05-26T00:23:01.862Z,15.10
2018-05-26T00:25:28.290Z,15.10
2018-05-26T00:27:54.696Z,15.10
2018-05-26T00:30:21.832Z,15.00
2018-05-26T00:32:48.224Z,15.00
2018-05-26T00:35:14.620Z,15.10
2018-05-26T00:37:41.022Z,15.10
2018-05-26T00:40:07.414Z,14.90
2018-05-26T00:42:33.810Z,14.90
2018-05-26T00:45:00.944Z,15.10
2018-05-26T00:47:28.806Z,15.10
2018-05-26T00:49:55.191Z,15.10
2018-05-26T00:52:22.203Z,15.10
2018-05-26T00:54:49.353Z,15.10
2018-05-26T00:57:18.015Z,15.10
2018-05-26T00:59:45.384Z,15.10
2018-05-26T01:02:12.407Z,15.10
2018-05-26T01:04:38.819Z,15.20
2018-05-26T01:07:05.256Z,15.20
2018-05-26T01:09:33.119Z,15.10
2018-05-26T01:12:00.332Z,15.10
2018-05-26T01:14:26.942Z,15.20
2018-05-26T01:16:55.238Z,15.20
2018-05-26T01:19:26.055Z,15.20
2018-05-26T01:21:58.395Z,15.10
2018-05-26T01:24:29.382Z,15.20
2018-05-26T01:26:56.632Z,15.20
2018-05-26T01:29:24.817Z,15.10
2018-05-26T01:31:52.844Z,15.20
2018-05-26T01:34:19.246Z,15.20
2018-05-26T01:36:46.464Z,15.20
2018-05-26T01:39:14.772Z,15.20
2018-05-26T01:41:41.197Z,15.20
2018-05-26T01:44:07.592Z,15.20
2018-05-26T01:46:33.985Z,15.20
2018-05-26T01:49:00.386Z,15.30
2018-05-26T01:51:30.453Z,15.20
2018-05-26T01:56:32.712Z,15.20
2018-05-26T01:58:59.146Z,15.20
2018-05-26T02:01:25.556Z,15.30
2018-05-26T02:03:52.011Z,15.30
2018-05-26T02:06:19.498Z,15.30
2018-05-26T02:08:46.060Z,15.30
2018-05-26T02:11:12.607Z,15.30
2018-05-26T02:13:39.099Z,15.30
2018-05-26T02:16:07.113Z,15.20
2018-05-26T02:18:33.979Z,15.20
2018-05-26T02:21:00.487Z,15.20
2018-05-26T02:23:27.888Z,15.30
2018-05-26T02:25:55.442Z,15.30
2018-05-26T02:28:23.495Z,15.30
2018-05-26T02:30:50.966Z,15.20
2018-05-26T02:33:18.447Z,15.20
2018-05-26T02:35:44.896Z,15.10
2018-05-26T02:38:11.476Z,15.10
2018-05-26T02:40:37.981Z,15.20
2018-05-26T02:43:04.504Z,15.20
2018-05-26T02:45:30.968Z,15.20
2018-05-26T02:47:57.386Z,15.10
2018-05-26T02:50:23.812Z,15.10
2018-05-26T02:52:51.726Z,15.10
2018-05-26T02:55:19.755Z,15.00
2018-05-26T02:57:46.707Z,15.00
2018-05-26T03:00:13.192Z,14.90
2018-05-26T03:02:39.600Z,14.80
2018-05-26T03:05:12.655Z,14.90
2018-05-26T03:07:45.287Z,14.90
2018-05-26T03:10:18.481Z,14.90
2018-05-26T03:12:51.077Z,14.80
2018-05-26T03:15:17.405Z,14.80
2018-05-26T03:17:43.935Z,14.80
2018-05-26T03:20:10.959Z,14.80
2018-05-26T03:22:38.422Z,14.90
2018-05-26T03:25:06.429Z,14.80
2018-05-26T03:27:33.661Z,14.90
2018-05-26T03:30:02.345Z,14.90
2018-05-26T03:32:28.801Z,14.80
2018-05-26T03:34:55.249Z,14.80
2018-05-26T03:37:21.657Z,14.80
2018-05-26T03:39:48.134Z,14.80
2018-05-26T03:42:15.572Z,14.80
2018-05-26T03:44:42.486Z,14.70
2018-05-26T03:47:08.987Z,14.70
2018-05-26T03:49:36.160Z,14.90
2018-05-26T03:52:03.304Z,14.80
2018-05-26T03:54:42.136Z,14.80
2018-05-26T03:57:20.662Z,14.80
2018-05-26T04:00:12.317Z,14.80
2018-05-26T04:02:39.519Z,14.90
2018-05-26T04:05:06.542Z,14.90
2018-05-26T04:07:33.286Z,14.90
2018-05-26T04:10:00.483Z,15.00
2018-05-26T04:12:26.916Z,15.00
2018-05-26T04:14:54.760Z,15.00
2018-05-26T04:17:22.183Z,15.10
2018-05-26T04:19:49.591Z,15.20
2018-05-26T04:22:18.246Z,15.20
2018-05-26T04:24:44.664Z,15.20
2018-05-26T04:27:12.291Z,15.30
2018-05-26T04:29:39.507Z,15.10
2018-05-26T04:32:07.184Z,15.10
2018-05-26T04:34:33.744Z,15.10
2018-05-26T04:37:01.265Z,15.20
2018-05-26T04:39:28.518Z,15.10
2018-05-26T04:41:55.607Z,15.10
2018-05-26T04:44:22.187Z,15.10
2018-05-26T04:46:48.639Z,15.20
2018-05-26T04:49:15.175Z,15.30
2018-05-26T04:51:41.604Z,15.30
2018-05-26T04:54:08.741Z,15.30
2018-05-26T04:56:35.704Z,15.40
2018-05-26T04:59:02.222Z,15.30
2018-05-26T05:01:28.829Z,15.30
2018-05-26T05:03:56.048Z,15.40
2018-05-26T05:06:22.536Z,15.40
2018-05-26T05:08:48.936Z,15.40
2018-05-26T05:11:16.121Z,15.50
2018-05-26T05:13:42.533Z,15.40
2018-05-26T05:16:09.676Z,15.60
2018-05-26T05:18:36.818Z,15.50
2018-05-26T05:21:03.242Z,15.50
2018-05-26T05:23:30.403Z,15.70
2018-05-26T05:25:57.556Z,15.70
2018-05-26T05:28:24.698Z,15.70
2018-05-26T05:30:51.085Z,15.70
2018-05-26T05:33:17.485Z,15.80
2018-05-26T05:35:44.802Z,15.70
2018-05-26T05:38:11.254Z,15.70
2018-05-26T05:40:37.749Z,15.80
2018-05-26T05:43:06.345Z,15.80
2018-05-26T05:45:34.235Z,16.00
2018-05-26T05:48:00.645Z,16.00
2018-05-26T05:50:27.054Z,16.00
2018-05-26T05:52:53.456Z,16.00
2018-05-26T05:55:19.870Z,16.00
2018-05-26T05:57:46.261Z,16.10
2018-05-26T06:00:12.665Z,16.30
2018-05-26T06:02:39.090Z,16.40
2018-05-26T06:05:06.232Z,16.70
2018-05-26T06:07:33.436Z,16.70
2018-05-26T06:09:59.862Z,16.70
2018-05-26T06:12:26.263Z,16.80
2018-05-26T06:14:53.441Z,16.80
2018-05-26T06:17:20.532Z,16.70
2018-05-26T06:19:46.928Z,16.70
2018-05-26T06:22:13.338Z,16.70
2018-05-26T06:24:39.741Z,16.90
2018-05-26T06:27:06.877Z,17.30
2018-05-26T06:29:33.270Z,17.30
2018-05-26T06:31:59.681Z,17.50
2018-05-26T06:34:26.085Z,17.60
2018-05-26T06:36:53.225Z,17.50
2018-05-26T06:39:19.623Z,17.50
2018-05-26T06:41:46.027Z,17.50
2018-05-26T06:44:12.579Z,17.70
2018-05-26T06:46:39.008Z,17.70
2018-05-26T06:49:05.403Z,17.70
2018-05-26T06:51:32.561Z,17.90
2018-05-26T06:53:59.696Z,18.00
2018-05-26T06:56:26.108Z,18.00
2018-05-26T06:58:52.523Z,18.00
2018-05-26T07:01:18.917Z,18.00
2018-05-26T07:03:45.329Z,18.00
2018-05-26T07:06:12.510Z,18.40
2018-05-26T07:08:38.894Z,18.40
2018-05-26T07:11:05.291Z,18.70
2018-05-26T07:13:31.675Z,18.80
2018-05-26T07:15:58.812Z,18.90
2018-05-26T07:18:25.229Z,18.90
2018-05-26T07:20:51.630Z,19.00
2018-05-26T07:23:18.776Z,19.10
2018-05-26T07:25:45.142Z,19.10
2018-05-26T07:28:11.531Z,19.20
2018-05-26T07:30:37.943Z,19.40
2018-05-26T07:33:05.069Z,19.80
2018-05-26T07:35:32.077Z,19.80
2018-05-26T07:37:58.602Z,19.90
2018-05-26T07:40:24.996Z,20.30
2018-05-26T07:42:52.149Z,20.80
2018-05-26T07:45:18.524Z,20.80
2018-05-26T07:47:45.042Z,21.00
2018-05-26T07:50:12.337Z,21.10
2018-05-26T07:52:38.769Z,21.10
2018-05-26T07:55:05.163Z,21.20
2018-05-26T07:57:31.564Z,21.20
2018-05-26T07:59:58.710Z,21.10
2018-05-26T08:02:25.117Z,21.10
2018-05-26T08:04:51.530Z,21.30
2018-05-26T08:07:17.927Z,21.50
2018-05-26T08:09:45.073Z,22.20
2018-05-26T08:12:12.212Z,22.30
2018-05-26T08:14:39.345Z,22.30
2018-05-26T08:17:05.751Z,22.30
2018-05-26T08:19:32.176Z,22.40
2018-05-26T08:21:58.584Z,22.60
2018-05-26T08:24:25.048Z,22.60
2018-05-26T08:26:52.160Z,22.60
2018-05-26T08:29:19.332Z,22.50
2018-05-26T08:31:45.785Z,22.50
2018-05-26T08:34:12.223Z,22.70
2018-05-26T08:36:38.625Z,23.00
2018-05-26T08:39:05.045Z,23.00
2018-05-26T08:41:32.181Z,23.10
2018-05-26T08:43:59.340Z,23.30
2018-05-26T08:46:26.746Z,23.40
2018-05-26T08:48:53.126Z,23.40
2018-05-26T08:51:20.299Z,23.40
2018-05-26T08:53:46.687Z,23.40
2018-05-26T08:56:13.076Z,23.50
2018-05-26T08:58:40.204Z,23.70
2018-05-26T09:01:06.606Z,23.70
2018-05-26T09:03:33.735Z,24.00
2018-05-26T09:06:00.190Z,24.00
2018-05-26T09:08:26.574Z,24.00
2018-05-26T09:10:52.969Z,24.10
2018-05-26T09:13:20.095Z,24.50
2018-05-26T09:15:46.506Z,24.40
2018-05-26T09:18:12.906Z,24.40
2018-05-26T09:20:39.271Z,24.30
2018-05-26T09:23:05.656Z,24.40
2018-05-26T09:25:32.822Z,24.00
2018-05-26T09:27:59.208Z,24.00
2018-05-26T09:30:25.596Z,24.10
2018-05-26T09:32:52.015Z,24.30
2018-05-26T09:35:18.419Z,24.40
2018-05-26T09:37:46.304Z,24.30
2018-05-26T09:40:13.442Z,24.60
2018-05-26T09:42:39.830Z,24.60
2018-05-26T09:45:06.247Z,24.70
2018-05-26T09:47:32.660Z,24.80
2018-05-26T09:49:59.104Z,24.80
2018-05-26T09:52:25.503Z,24.80
2018-05-26T09:54:51.900Z,24.70
2018-05-26T09:57:18.299Z,24.60
2018-05-26T09:59:44.682Z,24.70
2018-05-26T10:02:11.081Z,24.70
2018-05-26T10:04:37.504Z,24.80
2018-05-26T10:07:04.073Z,24.70
2018-05-26T10:09:30.491Z,24.70
2018-05-26T10:11:58.089Z,24.40
2018-05-26T10:14:24.492Z,24.60
2018-05-26T10:16:50.894Z,24.70
2018-05-26T10:19:17.291Z,24.80
2018-05-26T10:21:45.380Z,25.20
2018-05-26T10:24:12.534Z,25.00
2018-05-26T10:26:39.677Z,25.20
2018-05-26T10:29:06.834Z,25.30
2018-05-26T10:31:33.988Z,25.20
2018-05-26T10:34:01.132Z,24.90
2018-05-26T10:36:28.276Z,24.90
2018-05-26T10:38:55.422Z,25.20
2018-05-26T10:41:22.579Z,25.20
2018-05-26T10:43:49.714Z,25.10
2018-05-26T10:46:23.209Z,25.10
2018-05-26T10:48:51.079Z,25.00
2018-05-26T10:51:18.261Z,24.80
2018-05-26T10:53:45.415Z,24.60
2018-05-26T10:56:11.836Z,24.60
2018-05-26T10:58:38.984Z,25.20
2018-05-26T11:01:06.126Z,25.30
2018-05-26T11:03:33.289Z,25.00
2018-05-26T11:06:00.422Z,25.20
2018-05-26T11:08:26.836Z,25.20
2018-05-26T11:10:53.253Z,25.30
2018-05-26T11:13:19.812Z,25.40
2018-05-26T11:15:46.189Z,25.00
2018-05-26T11:18:12.617Z,24.50
2018-05-26T11:20:41.129Z,24.60
2018-05-26T11:23:07.538Z,24.80
2018-05-26T11:25:34.030Z,24.90
2018-05-26T11:28:01.182Z,25.20
2018-05-26T11:30:29.153Z,25.30
2018-05-26T11:32:55.504Z,25.30
2018-05-26T11:35:22.665Z,25.10
2018-05-26T11:37:49.067Z,25.10
2018-05-26T11:40:16.243Z,24.60
2018-05-26T11:42:57.572Z,24.60
2018-05-26T11:45:23.955Z,24.80
2018-05-26T11:47:51.087Z,25.10
2018-05-26T11:50:17.484Z,25.10
2018-05-26T11:52:43.887Z,25.50
2018-05-26T11:55:10.326Z,25.50
2018-05-26T11:57:36.724Z,25.60
2018-05-26T12:00:03.888Z,25.30
2018-05-26T12:02:31.028Z,25.40
2018-05-26T12:04:58.157Z,25.50
2018-05-26T12:07:26.029Z,25.70
2018-05-26T12:09:53.907Z,25.70
2018-05-26T12:12:21.034Z,25.70
2018-05-26T12:14:47.430Z,25.70
2018-05-26T12:17:13.815Z,25.60
2018-05-26T12:19:40.952Z,25.30
2018-05-26T12:22:07.444Z,25.30
2018-05-26T12:24:33.857Z,25.30
2018-05-26T12:27:00.260Z,25.10
2018-05-26T12:29:26.643Z,24.90
2018-05-26T12:31:53.227Z,25.10
2018-05-26T12:34:19.615Z,25.30
2018-05-26T12:36:45.995Z,25.30
2018-05-26T12:39:12.386Z,25.30
2018-05-26T12:41:38.785Z,25.20
2018-05-26T12:44:05.913Z,25.10
2018-05-26T12:46:32.294Z,25.00
2018-05-26T12:48:58.761Z,25.30
2018-05-26T12:51:25.160Z,25.50
2018-05-26T12:53:51.559Z,25.60
2018-05-26T12:56:18.729Z,25.80
2018-05-26T12:58:45.110Z,25.80
2018-05-26T13:01:11.508Z,25.90
2018-05-26T13:03:37.903Z,26.00
2018-05-26T13:06:04.330Z,26.10
2018-05-26T13:08:30.702Z,26.20
2018-05-26T13:10:57.108Z,26.30
2018-05-26T13:13:24.264Z,25.80
2018-05-26T13:15:51.414Z,26.00
2018-05-26T13:18:17.826Z,26.00
2018-05-26T13:20:44.201Z,25.90
2018-05-26T13:23:10.641Z,26.00
2018-05-26T13:25:39.136Z,26.00
2018-05-26T13:28:05.554Z,26.00
2018-05-26T13:30:31.940Z,25.90
2018-05-26T13:32:58.335Z,25.80
2018-05-26T13:35:24.722Z,25.60
2018-05-26T13:37:51.850Z,25.80
2018-05-26T13:40:18.239Z,25.80
2018-05-26T13:42:44.658Z,25.90
2018-05-26T13:45:11.062Z,26.00
2018-05-26T13:47:38.223Z,25.60
2018-05-26T13:50:05.368Z,25.70
2018-05-26T13:52:32.493Z,25.60
2018-05-26T13:55:00.416Z,25.60
2018-05-26T13:57:27.519Z,25.70
2018-05-26T13:59:54.642Z,25.90
2018-05-26T14:02:21.017Z,25.90
2018-05-26T14:04:48.146Z,26.00
2018-05-26T14:07:16.166Z,26.20
2018-05-26T14:09:42.456Z,26.20
2018-05-26T14:12:08.850Z,26.40
2018-05-26T14:14:35.240Z,26.50
2018-05-26T14:17:02.360Z,26.40
2018-05-26T14:19:29.499Z,26.00
2018-05-26T14:21:55.898Z,26.00
2018-05-26T14:24:22.286Z,26.20
2018-05-26T14:26:48.688Z,26.20
2018-05-26T14:29:15.084Z,26.30
2018-05-26T14:31:41.483Z,26.40
2018-05-26T14:34:08.653Z,26.20
2018-05-26T14:36:35.828Z,26.10
2018-05-26T14:39:02.288Z,26.10
2018-05-26T14:41:28.680Z,26.20
2018-05-26T14:43:55.110Z,26.20
2018-05-26T14:46:21.500Z,26.20
2018-05-26T14:48:49.467Z,26.00
2018-05-26T14:51:17.338Z,26.20
2018-05-26T14:53:44.483Z,26.40
2018-05-26T14:56:10.895Z,26.30
2018-05-26T14:58:37.317Z,26.50
2018-05-26T15:01:03.731Z,26.50
2018-05-26T15:03:30.197Z,26.50
2018-05-26T15:05:56.613Z,26.80
2018-05-26T15:08:23.036Z,27.00
2018-05-26T15:10:49.451Z,27.00
2018-05-26T15:13:16.608Z,27.00
2018-05-26T15:15:43.017Z,26.90
2018-05-26T15:18:09.423Z,26.90
2018-05-26T15:20:36.808Z,27.00
2018-05-26T15:23:03.194Z,27.00
2018-05-26T15:25:29.593Z,26.80
2018-05-26T15:27:56.016Z,26.80
2018-05-26T15:30:23.167Z,26.70
2018-05-26T15:32:50.321Z,26.60
2018-05-26T15:35:16.768Z,26.60
2018-05-26T15:37:43.177Z,26.90
2018-05-26T15:40:10.319Z,27.00
2018-05-26T15:42:36.711Z,27.00
2018-05-26T15:45:03.172Z,27.20
2018-05-26T15:47:29.568Z,27.30
2018-05-26T15:49:55.983Z,27.30
2018-05-26T15:52:22.384Z,27.50
2018-05-26T15:54:48.777Z,27.60
2018-05-26T15:57:15.165Z,27.70
2018-05-26T15:59:43.165Z,27.90
2018-05-26T16:02:09.569Z,27.80
2018-05-26T16:04:36.712Z,27.20
2018-05-26T16:07:03.956Z,27.00
2018-05-26T16:09:31.324Z,26.90
2018-05-26T16:11:58.481Z,27.20
2018-05-26T16:14:25.621Z,27.20
2018-05-26T16:16:52.749Z,27.30
2018-05-26T16:19:20.622Z,27.10
2018-05-26T16:21:47.035Z,27.10
2018-05-26T16:24:14.223Z,26.90
2018-05-26T16:26:41.367Z,26.70
2018-05-26T16:29:08.509Z,26.60
2018-05-26T16:31:34.938Z,26.50
2018-05-26T16:34:02.844Z,26.40
2018-05-26T16:36:29.263Z,26.40
2018-05-26T16:38:56.395Z,26.20
2018-05-26T16:41:24.264Z,26.10
2018-05-26T16:43:51.426Z,26.10
2018-05-26T16:46:18.567Z,26.10
2018-05-26T16:48:44.949Z,26.10
2018-05-26T16:51:11.379Z,26.00
2018-05-26T16:53:37.793Z,26.00
2018-05-26T16:56:04.259Z,26.00
2018-05-26T16:58:30.664Z,25.90
2018-05-26T17:00:57.064Z,26.00
2018-05-26T17:03:23.438Z,25.90
2018-05-26T17:05:49.833Z,25.80
2018-05-26T17:08:16.211Z,25.80
2018-05-26T17:10:42.591Z,25.80
2018-05-26T17:13:09.733Z,25.80
2018-05-26T17:15:37.621Z,25.90
2018-05-26T17:18:04.766Z,25.80
2018-05-26T17:20:31.150Z,25.80
2018-05-26T17:22:57.555Z,25.70
2018-05-26T17:25:23.957Z,25.70
2018-05-26T17:27:50.356Z,25.60
2018-05-26T17:30:16.763Z,25.60
2018-05-26T17:32:43.155Z,25.60
2018-05-26T17:35:11.053Z,25.40
2018-05-26T17:37:37.463Z,25.40
2018-05-26T17:40:05.364Z,25.40
2018-05-26T17:42:31.741Z,25.40
2018-05-26T17:44:58.118Z,25.50
2018-05-26T17:47:25.242Z,25.40
2018-05-26T17:49:52.377Z,25.30
2018-05-26T17:52:18.757Z,25.30
2018-05-26T17:54:45.907Z,25.30
2018-05-26T17:57:12.287Z,25.30
2018-05-26T17:59:38.680Z,25.20
2018-05-26T18:02:11.986Z,25.10
2018-05-26T18:04:38.384Z,25.00
2018-05-26T18:07:04.814Z,24.90
2018-05-26T18:09:31.939Z,24.70
2018-05-26T18:11:59.819Z,24.50
2018-05-26T18:14:26.703Z,24.50
2018-05-26T18:16:53.078Z,24.40
2018-05-26T18:19:19.469Z,24.30
2018-05-26T18:21:45.869Z,24.10
2018-05-26T18:24:13.022Z,23.90
2018-05-26T18:26:40.165Z,23.80
2018-05-26T18:29:07.336Z,23.60
2018-05-26T18:31:33.739Z,23.60
2018-05-26T18:34:00.226Z,23.40
2018-05-26T18:36:26.606Z,23.30
2018-05-26T18:38:53.758Z,23.10
2018-05-26T18:41:20.914Z,22.90
2018-05-26T18:43:48.045Z,22.80
2018-05-26T18:46:14.443Z,22.80
2018-05-26T18:48:40.885Z,22.70
2018-05-26T18:51:08.046Z,22.50
2018-05-26T18:53:34.445Z,22.50
2018-05-26T18:56:00.866Z,22.40
2018-05-26T18:58:27.259Z,22.30
2018-05-26T19:00:53.672Z,22.30
2018-05-26T19:03:20.068Z,22.20
2018-05-26T19:05:46.475Z,22.10
2018-05-26T19:08:13.632Z,21.90
2018-05-26T19:10:40.768Z,21.70
2018-05-26T19:13:08.115Z,21.70
2018-05-26T19:15:34.524Z,21.50
2018-05-26T19:18:00.921Z,21.30
2018-05-26T19:20:27.342Z,21.20
2018-05-26T19:22:54.480Z,20.90
2018-05-26T19:25:21.615Z,20.90
2018-05-26T19:27:48.046Z,20.90
2018-05-26T19:30:15.952Z,20.80
2018-05-26T19:32:42.353Z,20.80
2018-05-26T19:35:08.772Z,20.90
2018-05-26T19:37:36.657Z,20.70
2018-05-26T19:40:03.891Z,20.80
2018-05-26T19:42:30.319Z,20.70
2018-05-26T19:44:56.703Z,20.70
2018-05-26T19:47:23.120Z,20.70
2018-05-26T19:49:50.291Z,20.50
2018-05-26T19:52:16.776Z,20.50
2018-05-26T19:54:44.280Z,20.40
2018-05-26T19:57:10.761Z,20.40
2018-05-26T19:59:37.240Z,20.30
2018-05-26T20:02:03.740Z,20.10
2018-05-26T20:04:30.241Z,20.00
2018-05-26T20:06:56.719Z,19.90
2018-05-26T20:09:23.937Z,19.80
2018-05-26T20:11:50.486Z,19.80
2018-05-26T20:14:16.969Z,19.80
2018-05-26T20:16:43.495Z,19.70
2018-05-26T20:19:10.079Z,19.70
2018-05-26T20:21:36.567Z,19.70
2018-05-26T20:24:03.072Z,19.60
2018-05-26T20:26:30.314Z,19.50
2018-05-26T20:28:57.657Z,19.50
2018-05-26T20:31:24.145Z,19.60
2018-05-26T20:33:50.621Z,19.60
2018-05-26T20:36:17.411Z,19.50
2018-05-26T20:38:44.646Z,19.30
2018-05-26T20:41:12.180Z,19.20
2018-05-26T20:43:38.716Z,19.20
2018-05-26T20:46:06.706Z,19.20
2018-05-26T20:48:33.571Z,19.20
2018-05-26T20:51:00.799Z,19.20
2018-05-26T20:53:33.241Z,19.20
2018-05-26T20:55:59.644Z,19.20
2018-05-26T20:58:26.241Z,19.00
2018-05-26T21:00:52.656Z,19.00
2018-05-26T21:03:19.058Z,19.00
2018-05-26T21:05:45.494Z,18.90
2018-05-26T21:08:12.695Z,18.80
2018-05-26T21:10:39.391Z,18.80
2018-05-26T21:13:05.775Z,18.70
2018-05-26T21:15:32.189Z,18.50
2018-05-26T21:17:58.586Z,18.50
2018-05-26T21:20:25.011Z,18.40
2018-05-26T21:22:52.152Z,18.40
2018-05-26T21:25:19.313Z,18.30
2018-05-26T21:27:45.865Z,18.30
2018-05-26T21:30:12.183Z,18.30
2018-05-26T21:32:38.592Z,18.30
2018-05-26T21:35:05.742Z,18.20
2018-05-26T21:37:32.902Z,18.00
2018-05-26T21:40:00.029Z,17.90
2018-05-26T21:42:26.434Z,17.90
2018-05-26T21:44:52.838Z,17.80
2018-05-26T21:47:19.237Z,17.80
2018-05-26T21:49:45.713Z,17.80
2018-05-26T21:52:12.117Z,17.80
2018-05-26T21:54:38.603Z,18.00
2018-05-26T21:57:05.000Z,17.90
2018-05-26T21:59:31.376Z,17.80
2018-05-26T22:01:57.763Z,17.70
2018-05-26T22:04:24.174Z,17.70
2018-05-26T22:06:51.342Z,17.80
2018-05-26T22:09:17.736Z,17.70
2018-05-26T22:11:44.144Z,17.70
2018-05-26T22:14:10.537Z,17.70
2018-05-26T22:16:36.952Z,17.60
2018-05-26T22:19:04.081Z,17.50
2018-05-26T22:21:31.446Z,17.50
2018-05-26T22:23:58.640Z,17.40
2018-05-26T22:26:25.026Z,17.30
2018-05-26T22:28:51.414Z,17.20
2018-05-26T22:31:17.823Z,17.10
2018-05-26T22:33:44.220Z,17.10
2018-05-26T22:36:12.116Z,17.00
2018-05-26T22:38:39.253Z,17.10
2018-05-26T22:41:07.457Z,17.00
2018-05-26T22:43:33.856Z,17.00
2018-05-26T22:46:00.996Z,17.10
2018-05-26T22:48:28.883Z,17.00
2018-05-26T22:50:56.035Z,17.00
2018-05-26T22:53:23.199Z,17.00
2018-05-26T22:55:49.608Z,17.00
2018-05-26T22:58:16.793Z,17.10
2018-05-26T23:00:43.186Z,17.10
2018-05-26T23:03:09.569Z,17.00
2018-05-26T23:05:35.970Z,17.00
2018-05-26T23:08:03.134Z,16.80
2018-05-26T23:10:29.548Z,16.90
2018-05-26T23:12:56.690Z,16.50
2018-05-26T23:15:23.839Z,16.40
2018-05-26T23:17:50.984Z,16.30
2018-05-26T23:20:18.131Z,16.30
2018-05-26T23:22:44.536Z,16.30
2018-05-26T23:25:10.932Z,16.40
2018-05-26T23:27:37.349Z,16.30
2018-05-26T23:30:04.488Z,16.30
2018-05-26T23:32:31.619Z,16.30
2018-05-26T23:34:58.001Z,16.20
2018-05-26T23:37:24.405Z,16.30
2018-05-26T23:39:51.558Z,16.30
2018-05-26T23:42:18.728Z,16.30
2018-05-26T23:44:45.155Z,16.30
2018-05-26T23:47:11.566Z,16.30
2018-05-26T23:49:38.706Z,16.30
2018-05-26T23:52:05.100Z,16.30
2018-05-26T23:54:31.515Z,16.40
2018-05-26T23:56:57.944Z,16.30
2018-05-26T23:59:24.337Z,16.30
